sensor_id;sensor_type;location;lat;lon;timestamp;P1;durP1;ratioP1;P2;durP2;ratioP2
57746;SDS011;43580;44.014;20.466;2023-03-01T00:00:02;65.53;;;25.60;;
57746;SDS011;43580;44.014;20.466;2023-03-01T00:02:28;60.20;;;25.40;;
57746;SDS011;43580;44.014;20.466;2023-03-01T00:04:54;54.95;;;23.52;;
57746;SDS011;43580;44.014;20.466;2023-03-01T00:07:21;66.45;;;26.25;;
57746;SDS011;43580;44.014;20.466;2023-03-01T00:09:47;86.10;;;32.00;;
57746;SDS011;43580;44.014;20.466;2023-03-01T00:12:15;78.22;;;29.83;;
57746;SDS011;43580;44.014;20.466;2023-03-01T00:14:41;94.05;;;32.28;;
57746;SDS011;43580;44.014;20.466;2023-03-01T00:17:07;84.20;;;33.85;;
57746;SDS011;43580;44.014;20.466;2023-03-01T00:19:33;92.03;;;32.70;;
57746;SDS011;43580;44.014;20.466;2023-03-01T00:22:00;93.93;;;32.30;;
57746;SDS011;43580;44.014;20.466;2023-03-01T00:24:26;75.93;;;28.25;;
57746;SDS011;43580;44.014;20.466;2023-03-01T00:26:52;75.88;;;28.65;;
57746;SDS011;43580;44.014;20.466;2023-03-01T00:29:20;66.90;;;26.92;;
57746;SDS011;43580;44.014;20.466;2023-03-01T00:31:46;65.35;;;25.17;;
57746;SDS011;43580;44.014;20.466;2023-03-01T00:34:12;61.42;;;25.83;;
57746;SDS011;43580;44.014;20.466;2023-03-01T00:36:38;90.97;;;30.13;;
57746;SDS011;43580;44.014;20.466;2023-03-01T00:39:07;67.38;;;27.48;;
57746;SDS011;43580;44.014;20.466;2023-03-01T00:41:35;85.70;;;40.47;;
57746;SDS011;43580;44.014;20.466;2023-03-01T00:44:02;99.75;;;44.72;;
57746;SDS011;43580;44.014;20.466;2023-03-01T00:46:28;78.97;;;35.80;;
57746;SDS011;43580;44.014;20.466;2023-03-01T00:48:55;74.75;;;28.17;;
57746;SDS011;43580;44.014;20.466;2023-03-01T00:51:25;87.55;;;32.88;;
57746;SDS011;43580;44.014;20.466;2023-03-01T00:53:54;98.07;;;31.70;;
57746;SDS011;43580;44.014;20.466;2023-03-01T00:56:21;55.72;;;21.90;;
57746;SDS011;43580;44.014;20.466;2023-03-01T00:58:48;59.65;;;26.55;;
57746;SDS011;43580;44.014;20.466;2023-03-01T01:01:24;52.70;;;22.17;;
57746;SDS011;43580;44.014;20.466;2023-03-01T01:03:53;68.30;;;31.42;;
57746;SDS011;43580;44.014;20.466;2023-03-01T01:06:26;66.70;;;26.50;;
57746;SDS011;43580;44.014;20.466;2023-03-01T01:08:53;64.00;;;25.83;;
57746;SDS011;43580;44.014;20.466;2023-03-01T01:11:20;72.07;;;28.25;;
57746;SDS011;43580;44.014;20.466;2023-03-01T01:13:47;137.52;;;70.95;;
57746;SDS011;43580;44.014;20.466;2023-03-01T01:16:14;70.13;;;28.48;;
57746;SDS011;43580;44.014;20.466;2023-03-01T01:18:43;79.22;;;31.77;;
57746;SDS011;43580;44.014;20.466;2023-03-01T01:21:11;85.47;;;36.70;;
57746;SDS011;43580;44.014;20.466;2023-03-01T01:23:38;70.78;;;28.75;;
57746;SDS011;43580;44.014;20.466;2023-03-01T01:26:08;81.78;;;38.40;;
57746;SDS011;43580;44.014;20.466;2023-03-01T01:28:38;70.60;;;25.27;;
57746;SDS011;43580;44.014;20.466;2023-03-01T01:31:04;85.30;;;28.60;;
57746;SDS011;43580;44.014;20.466;2023-03-01T01:33:31;71.63;;;27.13;;
57746;SDS011;43580;44.014;20.466;2023-03-01T01:35:57;68.13;;;25.83;;
57746;SDS011;43580;44.014;20.466;2023-03-01T01:38:23;71.22;;;26.63;;
57746;SDS011;43580;44.014;20.466;2023-03-01T01:40:50;78.45;;;29.10;;
57746;SDS011;43580;44.014;20.466;2023-03-01T01:43:21;76.22;;;28.27;;
57746;SDS011;43580;44.014;20.466;2023-03-01T01:45:48;72.40;;;27.83;;
57746;SDS011;43580;44.014;20.466;2023-03-01T01:48:18;76.93;;;33.58;;
57746;SDS011;43580;44.014;20.466;2023-03-01T01:50:45;65.40;;;25.42;;
57746;SDS011;43580;44.014;20.466;2023-03-01T01:53:16;56.45;;;24.52;;
57746;SDS011;43580;44.014;20.466;2023-03-01T01:55:45;75.15;;;31.92;;
57746;SDS011;43580;44.014;20.466;2023-03-01T01:58:16;86.82;;;37.53;;
57746;SDS011;43580;44.014;20.466;2023-03-01T02:00:44;59.88;;;25.95;;
57746;SDS011;43580;44.014;20.466;2023-03-01T02:03:11;56.80;;;26.08;;
57746;SDS011;43580;44.014;20.466;2023-03-01T02:05:46;63.80;;;30.80;;
57746;SDS011;43580;44.014;20.466;2023-03-01T02:08:13;84.45;;;41.85;;
57746;SDS011;43580;44.014;20.466;2023-03-01T02:10:40;44.40;;;18.45;;
57746;SDS011;43580;44.014;20.466;2023-03-01T02:13:06;55.40;;;21.75;;
57746;SDS011;43580;44.014;20.466;2023-03-01T02:15:36;45.00;;;19.63;;
57746;SDS011;43580;44.014;20.466;2023-03-01T02:18:03;51.83;;;21.85;;
57746;SDS011;43580;44.014;20.466;2023-03-01T02:23:14;49.05;;;20.13;;
57746;SDS011;43580;44.014;20.466;2023-03-01T02:25:46;58.35;;;22.75;;
57746;SDS011;43580;44.014;20.466;2023-03-01T02:30:42;50.40;;;22.02;;
57746;SDS011;43580;44.014;20.466;2023-03-01T02:33:33;40.47;;;20.60;;
57746;SDS011;43580;44.014;20.466;2023-03-01T02:36:06;44.38;;;20.17;;
57746;SDS011;43580;44.014;20.466;2023-03-01T02:38:34;48.33;;;23.05;;
57746;SDS011;43580;44.014;20.466;2023-03-01T02:41:00;53.95;;;25.08;;
57746;SDS011;43580;44.014;20.466;2023-03-01T02:43:29;46.97;;;20.63;;
57746;SDS011;43580;44.014;20.466;2023-03-01T02:45:57;53.20;;;26.77;;
57746;SDS011;43580;44.014;20.466;2023-03-01T02:48:23;48.85;;;20.30;;
57746;SDS011;43580;44.014;20.466;2023-03-01T02:51:14;45.00;;;19.80;;
57746;SDS011;43580;44.014;20.466;2023-03-01T02:56:12;48.95;;;23.58;;
57746;SDS011;43580;44.014;20.466;2023-03-01T02:58:40;41.97;;;21.55;;
57746;SDS011;43580;44.014;20.466;2023-03-01T03:01:11;40.67;;;20.42;;
57746;SDS011;43580;44.014;20.466;2023-03-01T03:03:38;41.53;;;20.00;;
57746;SDS011;43580;44.014;20.466;2023-03-01T03:06:05;39.90;;;18.55;;
57746;SDS011;43580;44.014;20.466;2023-03-01T03:08:31;40.28;;;17.88;;
57746;SDS011;43580;44.014;20.466;2023-03-01T03:10:59;41.45;;;20.52;;
57746;SDS011;43580;44.014;20.466;2023-03-01T03:13:28;36.63;;;16.77;;
57746;SDS011;43580;44.014;20.466;2023-03-01T03:15:54;38.33;;;19.73;;
57746;SDS011;43580;44.014;20.466;2023-03-01T03:18:21;38.78;;;16.20;;
57746;SDS011;43580;44.014;20.466;2023-03-01T03:20:47;35.38;;;17.40;;
57746;SDS011;43580;44.014;20.466;2023-03-01T03:23:18;37.13;;;17.13;;
57746;SDS011;43580;44.014;20.466;2023-03-01T03:25:49;39.95;;;19.77;;
57746;SDS011;43580;44.014;20.466;2023-03-01T03:28:15;41.17;;;20.40;;
57746;SDS011;43580;44.014;20.466;2023-03-01T03:30:42;37.80;;;18.38;;
57746;SDS011;43580;44.014;20.466;2023-03-01T03:33:09;30.60;;;14.60;;
57746;SDS011;43580;44.014;20.466;2023-03-01T03:35:39;42.08;;;18.90;;
57746;SDS011;43580;44.014;20.466;2023-03-01T03:38:06;33.92;;;16.75;;
57746;SDS011;43580;44.014;20.466;2023-03-01T03:40:41;40.10;;;18.00;;
57746;SDS011;43580;44.014;20.466;2023-03-01T03:43:09;33.78;;;16.25;;
57746;SDS011;43580;44.014;20.466;2023-03-01T03:45:35;40.50;;;18.80;;
57746;SDS011;43580;44.014;20.466;2023-03-01T03:48:02;36.05;;;17.02;;
57746;SDS011;43580;44.014;20.466;2023-03-01T03:50:29;42.55;;;21.25;;
57746;SDS011;43580;44.014;20.466;2023-03-01T03:52:59;45.05;;;20.80;;
57746;SDS011;43580;44.014;20.466;2023-03-01T03:55:26;41.55;;;18.48;;
57746;SDS011;43580;44.014;20.466;2023-03-01T03:57:56;40.65;;;18.45;;
57746;SDS011;43580;44.014;20.466;2023-03-01T04:00:22;37.88;;;18.55;;
57746;SDS011;43580;44.014;20.466;2023-03-01T04:02:49;41.00;;;19.38;;
57746;SDS011;43580;44.014;20.466;2023-03-01T04:05:16;33.70;;;17.05;;
57746;SDS011;43580;44.014;20.466;2023-03-01T04:07:43;42.45;;;20.42;;
57746;SDS011;43580;44.014;20.466;2023-03-01T04:10:10;43.65;;;22.27;;
57746;SDS011;43580;44.014;20.466;2023-03-01T04:12:36;37.40;;;17.90;;
57746;SDS011;43580;44.014;20.466;2023-03-01T04:15:03;78.55;;;37.88;;
57746;SDS011;43580;44.014;20.466;2023-03-01T04:17:38;100.45;;;49.63;;
57746;SDS011;43580;44.014;20.466;2023-03-01T04:20:08;62.47;;;26.20;;
57746;SDS011;43580;44.014;20.466;2023-03-01T04:22:34;67.35;;;36.33;;
57746;SDS011;43580;44.014;20.466;2023-03-01T04:25:00;83.05;;;45.10;;
57746;SDS011;43580;44.014;20.466;2023-03-01T04:27:27;50.63;;;27.08;;
57746;SDS011;43580;44.014;20.466;2023-03-01T04:29:55;49.08;;;27.98;;
57746;SDS011;43580;44.014;20.466;2023-03-01T04:32:21;50.58;;;28.27;;
57746;SDS011;43580;44.014;20.466;2023-03-01T04:34:47;33.75;;;18.52;;
57746;SDS011;43580;44.014;20.466;2023-03-01T04:37:13;47.35;;;23.95;;
57746;SDS011;43580;44.014;20.466;2023-03-01T04:39:40;64.60;;;35.33;;
57746;SDS011;43580;44.014;20.466;2023-03-01T04:42:14;68.25;;;41.42;;
57746;SDS011;43580;44.014;20.466;2023-03-01T04:44:40;60.05;;;29.60;;
57746;SDS011;43580;44.014;20.466;2023-03-01T04:47:06;76.68;;;35.42;;
57746;SDS011;43580;44.014;20.466;2023-03-01T04:49:32;92.22;;;45.28;;
57746;SDS011;43580;44.014;20.466;2023-03-01T04:51:58;51.63;;;24.58;;
57746;SDS011;43580;44.014;20.466;2023-03-01T04:54:33;51.63;;;27.63;;
57746;SDS011;43580;44.014;20.466;2023-03-01T04:57:00;65.85;;;32.15;;
57746;SDS011;43580;44.014;20.466;2023-03-01T04:59:26;79.43;;;39.90;;
57746;SDS011;43580;44.014;20.466;2023-03-01T05:01:53;67.72;;;31.75;;
57746;SDS011;43580;44.014;20.466;2023-03-01T05:04:23;51.63;;;24.17;;
57746;SDS011;43580;44.014;20.466;2023-03-01T05:06:49;54.80;;;26.40;;
57746;SDS011;43580;44.014;20.466;2023-03-01T05:09:15;57.85;;;27.52;;
57746;SDS011;43580;44.014;20.466;2023-03-01T05:11:41;59.28;;;25.83;;
57746;SDS011;43580;44.014;20.466;2023-03-01T05:14:08;56.13;;;27.45;;
57746;SDS011;43580;44.014;20.466;2023-03-01T05:16:35;59.55;;;29.50;;
57746;SDS011;43580;44.014;20.466;2023-03-01T05:19:02;48.72;;;24.42;;
57746;SDS011;43580;44.014;20.466;2023-03-01T05:21:40;62.78;;;32.58;;
57746;SDS011;43580;44.014;20.466;2023-03-01T05:24:26;73.70;;;35.05;;
57746;SDS011;43580;44.014;20.466;2023-03-01T05:26:52;65.70;;;31.50;;
57746;SDS011;43580;44.014;20.466;2023-03-01T05:29:19;110.85;;;49.83;;
57746;SDS011;43580;44.014;20.466;2023-03-01T05:31:50;76.78;;;38.88;;
57746;SDS011;43580;44.014;20.466;2023-03-01T05:34:17;59.85;;;31.45;;
57746;SDS011;43580;44.014;20.466;2023-03-01T05:36:43;83.90;;;44.25;;
57746;SDS011;43580;44.014;20.466;2023-03-01T05:39:09;51.33;;;24.48;;
57746;SDS011;43580;44.014;20.466;2023-03-01T05:41:35;66.63;;;30.17;;
57746;SDS011;43580;44.014;20.466;2023-03-01T05:44:01;71.57;;;37.13;;
57746;SDS011;43580;44.014;20.466;2023-03-01T05:46:29;65.07;;;31.98;;
57746;SDS011;43580;44.014;20.466;2023-03-01T05:48:55;92.00;;;46.92;;
57746;SDS011;43580;44.014;20.466;2023-03-01T05:51:21;67.65;;;34.13;;
57746;SDS011;43580;44.014;20.466;2023-03-01T05:53:47;94.53;;;45.28;;
57746;SDS011;43580;44.014;20.466;2023-03-01T05:56:13;121.63;;;57.92;;
57746;SDS011;43580;44.014;20.466;2023-03-01T05:58:39;112.53;;;55.40;;
57746;SDS011;43580;44.014;20.466;2023-03-01T06:01:10;100.15;;;52.55;;
57746;SDS011;43580;44.014;20.466;2023-03-01T06:03:39;76.30;;;39.70;;
57746;SDS011;43580;44.014;20.466;2023-03-01T06:06:05;68.70;;;37.03;;
57746;SDS011;43580;44.014;20.466;2023-03-01T06:08:31;93.43;;;49.80;;
57746;SDS011;43580;44.014;20.466;2023-03-01T06:10:57;104.70;;;56.08;;
57746;SDS011;43580;44.014;20.466;2023-03-01T06:13:24;86.22;;;43.92;;
57746;SDS011;43580;44.014;20.466;2023-03-01T06:15:50;69.18;;;36.33;;
57746;SDS011;43580;44.014;20.466;2023-03-01T06:18:18;113.85;;;55.28;;
57746;SDS011;43580;44.014;20.466;2023-03-01T06:20:44;74.78;;;38.58;;
57746;SDS011;43580;44.014;20.466;2023-03-01T06:23:10;71.05;;;35.95;;
57746;SDS011;43580;44.014;20.466;2023-03-01T06:25:36;87.78;;;43.63;;
57746;SDS011;43580;44.014;20.466;2023-03-01T06:28:03;78.28;;;40.75;;
57746;SDS011;43580;44.014;20.466;2023-03-01T06:30:29;78.90;;;40.35;;
57746;SDS011;43580;44.014;20.466;2023-03-01T06:32:56;73.80;;;37.97;;
57746;SDS011;43580;44.014;20.466;2023-03-01T06:35:25;82.40;;;48.03;;
57746;SDS011;43580;44.014;20.466;2023-03-01T06:37:54;103.88;;;58.17;;
57746;SDS011;43580;44.014;20.466;2023-03-01T06:40:21;93.65;;;50.60;;
57746;SDS011;43580;44.014;20.466;2023-03-01T06:42:48;99.57;;;53.75;;
57746;SDS011;43580;44.014;20.466;2023-03-01T06:45:14;135.35;;;76.57;;
57746;SDS011;43580;44.014;20.466;2023-03-01T06:47:40;129.80;;;63.10;;
57746;SDS011;43580;44.014;20.466;2023-03-01T06:50:07;144.50;;;85.25;;
57746;SDS011;43580;44.014;20.466;2023-03-01T06:52:33;170.68;;;100.10;;
57746;SDS011;43580;44.014;20.466;2023-03-01T06:54:59;122.43;;;62.47;;
57746;SDS011;43580;44.014;20.466;2023-03-01T06:57:25;105.88;;;55.33;;
57746;SDS011;43580;44.014;20.466;2023-03-01T06:59:52;112.88;;;57.08;;
57746;SDS011;43580;44.014;20.466;2023-03-01T07:02:18;90.63;;;49.15;;
57746;SDS011;43580;44.014;20.466;2023-03-01T07:04:44;83.18;;;44.28;;
57746;SDS011;43580;44.014;20.466;2023-03-01T07:07:10;114.90;;;56.65;;
57746;SDS011;43580;44.014;20.466;2023-03-01T07:09:36;83.97;;;42.63;;
57746;SDS011;43580;44.014;20.466;2023-03-01T07:12:02;95.90;;;56.45;;
57746;SDS011;43580;44.014;20.466;2023-03-01T07:14:29;87.60;;;49.83;;
57746;SDS011;43580;44.014;20.466;2023-03-01T07:16:55;104.30;;;58.83;;
57746;SDS011;43580;44.014;20.466;2023-03-01T07:19:21;80.35;;;42.13;;
57746;SDS011;43580;44.014;20.466;2023-03-01T07:21:47;78.30;;;42.65;;
57746;SDS011;43580;44.014;20.466;2023-03-01T07:24:13;92.78;;;52.63;;
57746;SDS011;43580;44.014;20.466;2023-03-01T07:26:39;99.00;;;57.50;;
57746;SDS011;43580;44.014;20.466;2023-03-01T07:29:09;80.20;;;43.30;;
57746;SDS011;43580;44.014;20.466;2023-03-01T07:31:37;67.50;;;38.80;;
57746;SDS011;43580;44.014;20.466;2023-03-01T07:34:04;81.65;;;45.17;;
57746;SDS011;43580;44.014;20.466;2023-03-01T07:36:30;78.93;;;40.63;;
57746;SDS011;43580;44.014;20.466;2023-03-01T07:38:56;73.15;;;40.17;;
57746;SDS011;43580;44.014;20.466;2023-03-01T07:41:22;73.32;;;41.17;;
57746;SDS011;43580;44.014;20.466;2023-03-01T07:43:48;70.18;;;37.10;;
57746;SDS011;43580;44.014;20.466;2023-03-01T07:46:14;102.72;;;54.97;;
57746;SDS011;43580;44.014;20.466;2023-03-01T07:48:41;78.30;;;43.20;;
57746;SDS011;43580;44.014;20.466;2023-03-01T07:51:07;81.75;;;42.65;;
57746;SDS011;43580;44.014;20.466;2023-03-01T07:53:33;65.13;;;37.90;;
57746;SDS011;43580;44.014;20.466;2023-03-01T07:56:07;64.72;;;36.50;;
57746;SDS011;43580;44.014;20.466;2023-03-01T07:58:34;49.28;;;27.02;;
57746;SDS011;43580;44.014;20.466;2023-03-01T08:01:05;45.83;;;26.15;;
57746;SDS011;43580;44.014;20.466;2023-03-01T08:03:32;48.05;;;28.08;;
57746;SDS011;43580;44.014;20.466;2023-03-01T08:05:59;63.58;;;35.38;;
57746;SDS011;43580;44.014;20.466;2023-03-01T08:08:25;68.90;;;37.90;;
57746;SDS011;43580;44.014;20.466;2023-03-01T08:10:51;77.78;;;43.45;;
57746;SDS011;43580;44.014;20.466;2023-03-01T08:13:17;79.53;;;41.72;;
57746;SDS011;43580;44.014;20.466;2023-03-01T08:15:49;76.45;;;43.45;;
57746;SDS011;43580;44.014;20.466;2023-03-01T08:18:16;99.10;;;51.72;;
57746;SDS011;43580;44.014;20.466;2023-03-01T08:20:42;102.72;;;53.92;;
57746;SDS011;43580;44.014;20.466;2023-03-01T08:23:10;106.28;;;57.30;;
57746;SDS011;43580;44.014;20.466;2023-03-01T08:25:37;117.25;;;64.10;;
57746;SDS011;43580;44.014;20.466;2023-03-01T08:28:03;122.38;;;64.10;;
57746;SDS011;43580;44.014;20.466;2023-03-01T08:30:29;129.30;;;66.32;;
57746;SDS011;43580;44.014;20.466;2023-03-01T08:32:55;131.35;;;63.90;;
57746;SDS011;43580;44.014;20.466;2023-03-01T08:35:24;115.43;;;58.55;;
57746;SDS011;43580;44.014;20.466;2023-03-01T08:37:50;126.13;;;63.72;;
57746;SDS011;43580;44.014;20.466;2023-03-01T08:40:16;113.90;;;60.88;;
57746;SDS011;43580;44.014;20.466;2023-03-01T08:42:42;132.02;;;69.72;;
57746;SDS011;43580;44.014;20.466;2023-03-01T08:45:08;118.63;;;66.68;;
57746;SDS011;43580;44.014;20.466;2023-03-01T08:47:34;113.38;;;61.00;;
57746;SDS011;43580;44.014;20.466;2023-03-01T08:50:00;130.27;;;74.13;;
57746;SDS011;43580;44.014;20.466;2023-03-01T08:52:27;152.10;;;82.00;;
57746;SDS011;43580;44.014;20.466;2023-03-01T08:54:55;129.45;;;68.50;;
57746;SDS011;43580;44.014;20.466;2023-03-01T08:57:21;138.15;;;70.75;;
57746;SDS011;43580;44.014;20.466;2023-03-01T08:59:47;117.43;;;62.22;;
57746;SDS011;43580;44.014;20.466;2023-03-01T09:02:16;103.97;;;52.70;;
57746;SDS011;43580;44.014;20.466;2023-03-01T09:04:43;103.65;;;51.97;;
57746;SDS011;43580;44.014;20.466;2023-03-01T09:07:09;91.00;;;43.72;;
57746;SDS011;43580;44.014;20.466;2023-03-01T09:09:35;98.22;;;51.15;;
57746;SDS011;43580;44.014;20.466;2023-03-01T09:12:01;142.52;;;70.03;;
57746;SDS011;43580;44.014;20.466;2023-03-01T09:14:27;96.78;;;49.65;;
57746;SDS011;43580;44.014;20.466;2023-03-01T09:16:53;125.13;;;65.97;;
57746;SDS011;43580;44.014;20.466;2023-03-01T09:19:22;117.93;;;60.90;;
57746;SDS011;43580;44.014;20.466;2023-03-01T09:21:48;105.43;;;54.38;;
57746;SDS011;43580;44.014;20.466;2023-03-01T09:24:18;103.82;;;54.15;;
57746;SDS011;43580;44.014;20.466;2023-03-01T09:26:45;119.63;;;60.03;;
57746;SDS011;43580;44.014;20.466;2023-03-01T09:29:11;101.25;;;54.50;;
57746;SDS011;43580;44.014;20.466;2023-03-01T09:31:38;91.80;;;48.72;;
57746;SDS011;43580;44.014;20.466;2023-03-01T09:34:04;106.10;;;56.42;;
57746;SDS011;43580;44.014;20.466;2023-03-01T09:36:30;117.60;;;59.78;;
57746;SDS011;43580;44.014;20.466;2023-03-01T09:38:59;102.78;;;53.45;;
57746;SDS011;43580;44.014;20.466;2023-03-01T09:41:45;80.25;;;45.70;;
57746;SDS011;43580;44.014;20.466;2023-03-01T09:44:27;90.63;;;50.35;;
57746;SDS011;43580;44.014;20.466;2023-03-01T09:46:56;77.20;;;42.78;;
57746;SDS011;43580;44.014;20.466;2023-03-01T09:49:23;69.15;;;33.67;;
57746;SDS011;43580;44.014;20.466;2023-03-01T09:54:52;79.88;;;38.78;;
57746;SDS011;43580;44.014;20.466;2023-03-01T10:10:32;66.60;;;34.17;;
57746;SDS011;43580;44.014;20.466;2023-03-01T10:12:59;68.35;;;33.58;;
57746;SDS011;43580;44.014;20.466;2023-03-01T10:15:34;59.13;;;34.55;;
57746;SDS011;43580;44.014;20.466;2023-03-01T10:18:02;48.20;;;27.55;;
57746;SDS011;43580;44.014;20.466;2023-03-01T10:23:10;51.85;;;29.02;;
57746;SDS011;43580;44.014;20.466;2023-03-01T10:28:08;73.45;;;38.63;;
57746;SDS011;43580;44.014;20.466;2023-03-01T10:30:39;65.03;;;36.22;;
57746;SDS011;43580;44.014;20.466;2023-03-01T10:33:17;58.17;;;35.03;;
57746;SDS011;43580;44.014;20.466;2023-03-01T10:35:45;44.83;;;27.05;;
57746;SDS011;43580;44.014;20.466;2023-03-01T10:38:13;68.95;;;37.70;;
57746;SDS011;43580;44.014;20.466;2023-03-01T10:40:55;57.13;;;33.72;;
57746;SDS011;43580;44.014;20.466;2023-03-01T10:43:23;73.47;;;34.88;;
57746;SDS011;43580;44.014;20.466;2023-03-01T10:45:49;64.18;;;37.17;;
57746;SDS011;43580;44.014;20.466;2023-03-01T10:48:17;93.90;;;46.53;;
57746;SDS011;43580;44.014;20.466;2023-03-01T10:50:49;73.45;;;39.20;;
57746;SDS011;43580;44.014;20.466;2023-03-01T10:58:30;77.95;;;39.70;;
57746;SDS011;43580;44.014;20.466;2023-03-01T11:00:57;36.25;;;21.85;;
57746;SDS011;43580;44.014;20.466;2023-03-01T11:03:35;34.05;;;17.98;;
57746;SDS011;43580;44.014;20.466;2023-03-01T11:06:05;33.75;;;19.23;;
57746;SDS011;43580;44.014;20.466;2023-03-01T11:08:34;40.80;;;25.40;;
57746;SDS011;43580;44.014;20.466;2023-03-01T11:13:33;41.40;;;26.13;;
57746;SDS011;43580;44.014;20.466;2023-03-01T11:16:07;52.97;;;26.27;;
57746;SDS011;43580;44.014;20.466;2023-03-01T11:18:35;32.03;;;19.23;;
57746;SDS011;43580;44.014;20.466;2023-03-01T11:21:01;45.75;;;27.48;;
57746;SDS011;43580;44.014;20.466;2023-03-01T11:23:28;43.45;;;26.63;;
57746;SDS011;43580;44.014;20.466;2023-03-01T11:25:55;59.70;;;32.67;;
57746;SDS011;43580;44.014;20.466;2023-03-01T11:28:22;56.22;;;31.23;;
57746;SDS011;43580;44.014;20.466;2023-03-01T11:31:01;58.42;;;36.25;;
57746;SDS011;43580;44.014;20.466;2023-03-01T11:33:37;57.00;;;36.38;;
57746;SDS011;43580;44.014;20.466;2023-03-01T11:36:07;51.95;;;29.50;;
57746;SDS011;43580;44.014;20.466;2023-03-01T11:38:37;58.85;;;36.92;;
57746;SDS011;43580;44.014;20.466;2023-03-01T11:43:48;71.05;;;45.75;;
57746;SDS011;43580;44.014;20.466;2023-03-01T11:54:17;59.35;;;33.97;;
57746;SDS011;43580;44.014;20.466;2023-03-01T11:56:48;36.75;;;21.50;;
57746;SDS011;43580;44.014;20.466;2023-03-01T12:10:33;44.92;;;24.95;;
57746;SDS011;43580;44.014;20.466;2023-03-01T12:21:04;42.60;;;25.00;;
57746;SDS011;43580;44.014;20.466;2023-03-01T12:23:39;52.92;;;31.48;;
57746;SDS011;43580;44.014;20.466;2023-03-01T12:42:08;34.83;;;20.52;;
57746;SDS011;43580;44.014;20.466;2023-03-01T12:49:32;38.50;;;24.25;;
57746;SDS011;43580;44.014;20.466;2023-03-01T12:52:02;24.70;;;15.35;;
57746;SDS011;43580;44.014;20.466;2023-03-01T12:54:30;24.92;;;16.15;;
57746;SDS011;43580;44.014;20.466;2023-03-01T12:56:57;32.90;;;21.30;;
57746;SDS011;43580;44.014;20.466;2023-03-01T13:01:59;31.73;;;18.27;;
57746;SDS011;43580;44.014;20.466;2023-03-01T13:04:35;52.85;;;30.42;;
57746;SDS011;43580;44.014;20.466;2023-03-01T13:07:09;42.67;;;25.73;;
57746;SDS011;43580;44.014;20.466;2023-03-01T13:12:03;23.67;;;17.13;;
57746;SDS011;43580;44.014;20.466;2023-03-01T13:16:58;21.83;;;14.20;;
57746;SDS011;43580;44.014;20.466;2023-03-01T13:19:25;29.90;;;19.08;;
57746;SDS011;43580;44.014;20.466;2023-03-01T13:21:52;23.50;;;14.30;;
57746;SDS011;43580;44.014;20.466;2023-03-01T13:29:50;31.15;;;19.85;;
57746;SDS011;43580;44.014;20.466;2023-03-01T13:34:46;45.55;;;27.77;;
57746;SDS011;43580;44.014;20.466;2023-03-01T13:37:19;31.10;;;19.73;;
57746;SDS011;43580;44.014;20.466;2023-03-01T13:39:46;46.80;;;29.77;;
57746;SDS011;43580;44.014;20.466;2023-03-01T13:42:32;35.83;;;22.35;;
57746;SDS011;43580;44.014;20.466;2023-03-01T13:45:14;47.10;;;31.30;;
57746;SDS011;43580;44.014;20.466;2023-03-01T13:47:41;24.23;;;16.00;;
57746;SDS011;43580;44.014;20.466;2023-03-01T13:50:15;35.58;;;26.90;;
57746;SDS011;43580;44.014;20.466;2023-03-01T13:52:43;38.70;;;22.77;;
57746;SDS011;43580;44.014;20.466;2023-03-01T13:57:55;41.20;;;25.80;;
57746;SDS011;43580;44.014;20.466;2023-03-01T14:05:27;40.03;;;22.17;;
57746;SDS011;43580;44.014;20.466;2023-03-01T14:07:53;31.95;;;19.35;;
57746;SDS011;43580;44.014;20.466;2023-03-01T14:10:20;26.10;;;16.73;;
57746;SDS011;43580;44.014;20.466;2023-03-01T14:15:19;25.65;;;16.50;;
57746;SDS011;43580;44.014;20.466;2023-03-01T14:17:59;28.80;;;17.25;;
57746;SDS011;43580;44.014;20.466;2023-03-01T14:20:32;34.20;;;22.58;;
57746;SDS011;43580;44.014;20.466;2023-03-01T14:23:02;27.10;;;16.25;;
57746;SDS011;43580;44.014;20.466;2023-03-01T14:25:34;19.23;;;11.88;;
57746;SDS011;43580;44.014;20.466;2023-03-01T14:28:02;22.27;;;15.20;;
57746;SDS011;43580;44.014;20.466;2023-03-01T14:30:33;29.85;;;20.05;;
57746;SDS011;43580;44.014;20.466;2023-03-01T14:33:01;45.03;;;25.02;;
57746;SDS011;43580;44.014;20.466;2023-03-01T14:35:28;79.93;;;31.98;;
57746;SDS011;43580;44.014;20.466;2023-03-01T14:37:55;37.67;;;17.65;;
57746;SDS011;43580;44.014;20.466;2023-03-01T14:40:23;36.88;;;17.15;;
57746;SDS011;43580;44.014;20.466;2023-03-01T14:42:49;37.95;;;16.52;;
57746;SDS011;43580;44.014;20.466;2023-03-01T14:45:15;44.58;;;21.80;;
57746;SDS011;43580;44.014;20.466;2023-03-01T14:47:43;30.48;;;17.42;;
57746;SDS011;43580;44.014;20.466;2023-03-01T14:50:15;19.10;;;12.98;;
57746;SDS011;43580;44.014;20.466;2023-03-01T14:52:45;18.90;;;13.65;;
57746;SDS011;43580;44.014;20.466;2023-03-01T14:55:16;21.55;;;14.65;;
57746;SDS011;43580;44.014;20.466;2023-03-01T14:57:44;46.20;;;29.23;;
57746;SDS011;43580;44.014;20.466;2023-03-01T15:00:13;33.80;;;20.95;;
57746;SDS011;43580;44.014;20.466;2023-03-01T15:02:41;113.28;;;50.33;;
57746;SDS011;43580;44.014;20.466;2023-03-01T15:05:08;76.55;;;38.20;;
57746;SDS011;43580;44.014;20.466;2023-03-01T15:07:38;52.22;;;29.02;;
57746;SDS011;43580;44.014;20.466;2023-03-01T15:10:05;51.05;;;30.90;;
57746;SDS011;43580;44.014;20.466;2023-03-01T15:15:00;29.00;;;15.95;;
57746;SDS011;43580;44.014;20.466;2023-03-01T15:17:33;20.90;;;13.18;;
57746;SDS011;43580;44.014;20.466;2023-03-01T15:20:01;30.90;;;20.52;;
57746;SDS011;43580;44.014;20.466;2023-03-01T15:22:29;40.78;;;26.73;;
57746;SDS011;43580;44.014;20.466;2023-03-01T15:24:55;28.80;;;18.98;;
57746;SDS011;43580;44.014;20.466;2023-03-01T15:27:22;25.67;;;17.33;;
57746;SDS011;43580;44.014;20.466;2023-03-01T15:29:59;29.08;;;19.02;;
57746;SDS011;43580;44.014;20.466;2023-03-01T15:32:31;77.97;;;43.80;;
57746;SDS011;43580;44.014;20.466;2023-03-01T15:35:32;39.30;;;22.57;;
57746;SDS011;43580;44.014;20.466;2023-03-01T15:37:47;75.10;;;40.75;;
57746;SDS011;43580;44.014;20.466;2023-03-01T15:40:18;27.17;;;18.83;;
57746;SDS011;43580;44.014;20.466;2023-03-01T15:42:56;50.97;;;28.70;;
57746;SDS011;43580;44.014;20.466;2023-03-01T15:45:23;80.38;;;42.92;;
57746;SDS011;43580;44.014;20.466;2023-03-01T15:47:58;54.75;;;34.03;;
57746;SDS011;43580;44.014;20.466;2023-03-01T15:50:29;38.03;;;24.92;;
57746;SDS011;43580;44.014;20.466;2023-03-01T15:52:57;27.23;;;18.05;;
57746;SDS011;43580;44.014;20.466;2023-03-01T15:55:25;33.22;;;22.30;;
57746;SDS011;43580;44.014;20.466;2023-03-01T15:58:17;49.03;;;28.73;;
57746;SDS011;43580;44.014;20.466;2023-03-01T16:00:41;57.53;;;35.10;;
57746;SDS011;43580;44.014;20.466;2023-03-01T16:03:08;67.95;;;38.60;;
57746;SDS011;43580;44.014;20.466;2023-03-01T16:05:36;43.20;;;23.13;;
57746;SDS011;43580;44.014;20.466;2023-03-01T16:08:03;44.72;;;25.58;;